»·PEaware :: N426DA 1Q2-KMOD

N426DA :: 1Q2-KMOD

FLIGHT INFORMATION

Flight Status: Arrived
Operator: Privately registered:
United States
More flights under this callsign
Pilot: Christian A. (580)
Aircraft: Unknown
(B60T)
More flights by this aircraft type
Origin: 1Q2 Spaulding
United States
Destination: KMOD Modesto City-Co-Sham
United States
More flights between these airports :: More routes between these airports
Route: DCT VFR
File this flight plan on PilotEdge
Remarks:
Altitude:
(Current/Filed)
13,500ft
Speed:
(Current/Filed)
260kts
Departed: 06-Dec-17 09:32 PM
Arrived: 06-Dec-17 10:20 PM
Distance/Time
Traveled:
182nm/0:48
Distance/Time
To Go:
Arrived

Flight Plot

Page will automatically refresh every two minutes.

Flight plan parsing failed; only flown route is shown


Map Options




Map Legend


Flown Route
Filed Route
Departure Airport
Arrival Airport
Navaid (VOR, NDB)
Fix

Horizontal Profiles

Position Reports

Time Latitude Longitude Heading Altitude Ground
Speed
06-Dec-17 21:31 40.656449 -120.769159 89 5119ft 0kts
06-Dec-17 21:32 40.656449 -120.769159 89 5119ft 0kts
06-Dec-17 21:33 40.656449 -120.769159 89 5119ft 0kts
06-Dec-17 21:34 40.656449 -120.769159 89 5119ft 0kts
06-Dec-17 21:35 40.656455 -120.769124 67 5119ft 0kts
06-Dec-17 21:36 40.656413 -120.768412 180 5119ft 9kts
06-Dec-17 21:37 40.622905 -120.769451 182 7097ft 161kts
06-Dec-17 21:38 40.577181 -120.773026 177 10433ft 173kts
06-Dec-17 21:39 40.526390 -120.776291 177 13426ft 200kts
06-Dec-17 21:40 40.462616 -120.780439 178 13509ft 239kts
06-Dec-17 21:41 40.395752 -120.784758 178 13512ft 241kts
06-Dec-17 21:42 40.328532 -120.789041 178 13507ft 241kts
06-Dec-17 21:43 40.261531 -120.793293 178 13502ft 241kts
06-Dec-17 21:44 40.194295 -120.797562 178 13489ft 241kts
06-Dec-17 21:45 40.127352 -120.801779 178 13471ft 241kts
06-Dec-17 21:46 40.060295 -120.806010 178 13447ft 241kts
06-Dec-17 21:47 39.992953 -120.810276 178 13423ft 242kts
06-Dec-17 21:48 39.925752 -120.814495 178 13400ft 241kts
06-Dec-17 21:49 39.858528 -120.818705 178 13378ft 242kts
06-Dec-17 21:50 39.791060 -120.822950 178 13354ft 242kts
06-Dec-17 21:51 39.723823 -120.827147 178 13331ft 242kts
06-Dec-17 21:52 39.656657 -120.831318 178 13323ft 242kts
06-Dec-17 21:53 39.589238 -120.835525 178 13313ft 242kts
06-Dec-17 21:54 39.522064 -120.839686 178 13307ft 242kts
06-Dec-17 21:55 39.454615 -120.843894 178 13298ft 242kts
06-Dec-17 21:56 39.387436 -120.848066 178 13299ft 242kts
06-Dec-17 21:57 39.320183 -120.852215 178 13299ft 242kts
06-Dec-17 21:58 39.252629 -120.856378 178 13292ft 242kts
06-Dec-17 21:59 39.185302 -120.860520 178 13284ft 242kts
06-Dec-17 22:00 39.117929 -120.864655 178 13270ft 242kts
06-Dec-17 22:01 39.050319 -120.868814 178 13251ft 243kts
06-Dec-17 22:02 38.982890 -120.872930 179 13242ft 243kts
06-Dec-17 22:03 38.915276 -120.877073 179 13238ft 242kts
06-Dec-17 22:04 38.847841 -120.881186 179 13233ft 243kts
06-Dec-17 22:05 38.780400 -120.885294 179 13235ft 243kts
06-Dec-17 22:07 38.712638 -120.889407 179 13236ft 243kts
06-Dec-17 22:08 38.645040 -120.893504 179 13230ft 243kts
06-Dec-17 22:09 38.577404 -120.897598 179 13220ft 243kts
06-Dec-17 22:10 38.509604 -120.901694 179 13246ft 243kts
06-Dec-17 22:11 38.441933 -120.905773 179 13245ft 243kts
06-Dec-17 22:12 38.374250 -120.909846 179 13244ft 244kts
06-Dec-17 22:13 38.306274 -120.913925 179 13244ft 244kts
06-Dec-17 22:14 38.238758 -120.917996 179 12037ft 239kts
06-Dec-17 22:15 38.173212 -120.921918 180 10638ft 234kts
06-Dec-17 22:16 38.108405 -120.925792 180 9235ft 231kts
06-Dec-17 22:16 38.055078 -120.928975 180 8071ft 229kts
06-Dec-17 22:18 37.981056 -120.933400 180 6435ft 220kts
06-Dec-17 22:18 37.931733 -120.936323 179 5507ft 208kts
06-Dec-17 22:19 37.873641 -120.939761 180 4447ft 210kts
06-Dec-17 22:21 37.805880 -120.943783 180 3277ft 207kts
06-Dec-17 22:21 37.758234 -120.948787 193 2457ft 207kts
06-Dec-17 22:23 37.699018 -120.980687 195 1612ft 181kts
06-Dec-17 22:23 37.661157 -120.993783 193 1364ft 151kts
06-Dec-17 22:24 37.637070 -120.973890 122 421ft 95kts
06-Dec-17 22:25 37.625350 -120.951950 123 100ft 38kts
06-Dec-17 22:26 37.624770 -120.948210 32 100ft 0kts

Navigation Log

Ident Type
Flight plan parsing failed, navigation log unavailable